sensor_id;sensor_type;location;lat;lon;timestamp;P1;durP1;ratioP1;P2;durP2;ratioP2
29370;SDS011;16357;52.188;7.838;2023-01-16T00:01:47;4.10;;;1.40;;
29370;SDS011;16357;52.188;7.838;2023-01-16T00:04:14;5.70;;;1.42;;
29370;SDS011;16357;52.188;7.838;2023-01-16T00:06:41;3.58;;;1.20;;
29370;SDS011;16357;52.188;7.838;2023-01-16T00:09:07;4.90;;;1.50;;
29370;SDS011;16357;52.188;7.838;2023-01-16T00:11:33;3.42;;;1.50;;
29370;SDS011;16357;52.188;7.838;2023-01-16T00:14:00;4.80;;;1.30;;
29370;SDS011;16357;52.188;7.838;2023-01-16T00:16:26;2.92;;;1.05;;
29370;SDS011;16357;52.188;7.838;2023-01-16T00:18:53;3.90;;;1.30;;
29370;SDS011;16357;52.188;7.838;2023-01-16T00:21:21;4.53;;;1.20;;
29370;SDS011;16357;52.188;7.838;2023-01-16T00:23:55;1.40;;;0.90;;
29370;SDS011;16357;52.188;7.838;2023-01-16T00:26:23;4.15;;;1.45;;
29370;SDS011;16357;52.188;7.838;2023-01-16T00:28:51;5.38;;;0.98;;
29370;SDS011;16357;52.188;7.838;2023-01-16T00:31:17;2.60;;;1.00;;
29370;SDS011;16357;52.188;7.838;2023-01-16T00:33:44;4.07;;;1.00;;
29370;SDS011;16357;52.188;7.838;2023-01-16T00:36:11;2.38;;;0.80;;
29370;SDS011;16357;52.188;7.838;2023-01-16T00:38:38;3.22;;;1.20;;
29370;SDS011;16357;52.188;7.838;2023-01-16T00:41:04;2.78;;;1.08;;
29370;SDS011;16357;52.188;7.838;2023-01-16T00:43:31;6.20;;;1.50;;
29370;SDS011;16357;52.188;7.838;2023-01-16T00:45:58;3.63;;;1.30;;
29370;SDS011;16357;52.188;7.838;2023-01-16T00:48:24;3.67;;;1.30;;
29370;SDS011;16357;52.188;7.838;2023-01-16T00:50:51;3.92;;;1.40;;
29370;SDS011;16357;52.188;7.838;2023-01-16T00:53:17;4.68;;;1.02;;
29370;SDS011;16357;52.188;7.838;2023-01-16T00:55:44;3.33;;;1.20;;
29370;SDS011;16357;52.188;7.838;2023-01-16T00:58:10;3.35;;;1.52;;
29370;SDS011;16357;52.188;7.838;2023-01-16T01:00:37;2.65;;;1.05;;
29370;SDS011;16357;52.188;7.838;2023-01-16T01:03:04;6.80;;;1.67;;
29370;SDS011;16357;52.188;7.838;2023-01-16T01:05:30;5.07;;;1.52;;
29370;SDS011;16357;52.188;7.838;2023-01-16T01:07:57;5.10;;;1.48;;
29370;SDS011;16357;52.188;7.838;2023-01-16T01:10:23;3.13;;;1.48;;
29370;SDS011;16357;52.188;7.838;2023-01-16T01:12:52;4.13;;;1.52;;
29370;SDS011;16357;52.188;7.838;2023-01-16T01:15:19;3.67;;;1.38;;
29370;SDS011;16357;52.188;7.838;2023-01-16T01:17:46;4.35;;;1.27;;
29370;SDS011;16357;52.188;7.838;2023-01-16T01:20:12;5.45;;;1.33;;
29370;SDS011;16357;52.188;7.838;2023-01-16T01:22:38;3.47;;;1.30;;
29370;SDS011;16357;52.188;7.838;2023-01-16T01:25:05;5.45;;;1.40;;
29370;SDS011;16357;52.188;7.838;2023-01-16T01:27:31;4.43;;;1.48;;
29370;SDS011;16357;52.188;7.838;2023-01-16T01:29:58;3.88;;;1.17;;
29370;SDS011;16357;52.188;7.838;2023-01-16T01:32:24;4.40;;;1.05;;
29370;SDS011;16357;52.188;7.838;2023-01-16T01:34:50;2.45;;;0.90;;
29370;SDS011;16357;52.188;7.838;2023-01-16T01:37:17;1.98;;;0.80;;
29370;SDS011;16357;52.188;7.838;2023-01-16T01:39:43;3.90;;;1.10;;
29370;SDS011;16357;52.188;7.838;2023-01-16T01:42:10;2.65;;;0.98;;
29370;SDS011;16357;52.188;7.838;2023-01-16T01:44:57;2.38;;;1.13;;
29370;SDS011;16357;52.188;7.838;2023-01-16T01:47:34;2.85;;;1.40;;
29370;SDS011;16357;52.188;7.838;2023-01-16T01:50:10;2.28;;;0.95;;
29370;SDS011;16357;52.188;7.838;2023-01-16T01:52:44;1.88;;;1.00;;
29370;SDS011;16357;52.188;7.838;2023-01-16T01:55:11;1.98;;;1.20;;
29370;SDS011;16357;52.188;7.838;2023-01-16T01:57:42;5.75;;;1.50;;
29370;SDS011;16357;52.188;7.838;2023-01-16T02:00:20;3.25;;;1.05;;
29370;SDS011;16357;52.188;7.838;2023-01-16T02:02:55;3.00;;;1.30;;
29370;SDS011;16357;52.188;7.838;2023-01-16T02:05:32;3.60;;;1.20;;
29370;SDS011;16357;52.188;7.838;2023-01-16T02:08:03;3.95;;;1.45;;
29370;SDS011;16357;52.188;7.838;2023-01-16T02:10:38;3.80;;;1.38;;
29370;SDS011;16357;52.188;7.838;2023-01-16T02:13:09;3.22;;;1.15;;
29370;SDS011;16357;52.188;7.838;2023-01-16T02:15:36;3.22;;;1.20;;
29370;SDS011;16357;52.188;7.838;2023-01-16T02:18:24;1.77;;;1.10;;
29370;SDS011;16357;52.188;7.838;2023-01-16T02:24:15;3.35;;;1.38;;
29370;SDS011;16357;52.188;7.838;2023-01-16T02:26:57;4.55;;;1.25;;
29370;SDS011;16357;52.188;7.838;2023-01-16T02:29:55;2.67;;;1.40;;
29370;SDS011;16357;52.188;7.838;2023-01-16T02:38:20;3.25;;;1.50;;
29370;SDS011;16357;52.188;7.838;2023-01-16T02:40:52;2.67;;;1.38;;
29370;SDS011;16357;52.188;7.838;2023-01-16T02:46:15;4.40;;;1.85;;
29370;SDS011;16357;52.188;7.838;2023-01-16T02:48:47;3.30;;;1.40;;
29370;SDS011;16357;52.188;7.838;2023-01-16T02:54:07;2.38;;;1.35;;
29370;SDS011;16357;52.188;7.838;2023-01-16T02:56:41;4.30;;;2.17;;
29370;SDS011;16357;52.188;7.838;2023-01-16T02:59:12;2.97;;;1.52;;
29370;SDS011;16357;52.188;7.838;2023-01-16T03:01:40;2.97;;;1.63;;
29370;SDS011;16357;52.188;7.838;2023-01-16T03:07:18;3.13;;;1.40;;
29370;SDS011;16357;52.188;7.838;2023-01-16T03:26:49;5.20;;;1.42;;
29370;SDS011;16357;52.188;7.838;2023-01-16T03:29:07;3.60;;;1.45;;
29370;SDS011;16357;52.188;7.838;2023-01-16T03:31:48;2.92;;;1.10;;
29370;SDS011;16357;52.188;7.838;2023-01-16T03:39:49;2.03;;;1.08;;
29370;SDS011;16357;52.188;7.838;2023-01-16T03:42:33;1.73;;;0.98;;
29370;SDS011;16357;52.188;7.838;2023-01-16T03:45:06;3.33;;;1.00;;
29370;SDS011;16357;52.188;7.838;2023-01-16T03:47:42;3.45;;;1.10;;
29370;SDS011;16357;52.188;7.838;2023-01-16T03:50:13;2.80;;;1.00;;
29370;SDS011;16357;52.188;7.838;2023-01-16T03:52:45;1.55;;;1.00;;
29370;SDS011;16357;52.188;7.838;2023-01-16T03:55:17;2.60;;;1.23;;
29370;SDS011;16357;52.188;7.838;2023-01-16T03:57:51;3.60;;;1.30;;
29370;SDS011;16357;52.188;7.838;2023-01-16T04:00:23;2.90;;;1.42;;
29370;SDS011;16357;52.188;7.838;2023-01-16T04:02:56;3.72;;;1.30;;
29370;SDS011;16357;52.188;7.838;2023-01-16T04:05:53;2.15;;;1.10;;
29370;SDS011;16357;52.188;7.838;2023-01-16T04:08:24;2.28;;;1.10;;
29370;SDS011;16357;52.188;7.838;2023-01-16T04:10:57;1.67;;;1.45;;
29370;SDS011;16357;52.188;7.838;2023-01-16T04:13:32;3.13;;;1.20;;
29370;SDS011;16357;52.188;7.838;2023-01-16T04:16:01;4.35;;;1.70;;
29370;SDS011;16357;52.188;7.838;2023-01-16T04:18:33;2.58;;;1.50;;
29370;SDS011;16357;52.188;7.838;2023-01-16T04:21:05;2.97;;;1.20;;
29370;SDS011;16357;52.188;7.838;2023-01-16T04:23:33;3.67;;;1.23;;
29370;SDS011;16357;52.188;7.838;2023-01-16T04:26:00;3.15;;;1.60;;
29370;SDS011;16357;52.188;7.838;2023-01-16T04:28:27;4.38;;;1.50;;
29370;SDS011;16357;52.188;7.838;2023-01-16T04:30:53;3.90;;;1.70;;
29370;SDS011;16357;52.188;7.838;2023-01-16T04:33:20;3.65;;;1.20;;
29370;SDS011;16357;52.188;7.838;2023-01-16T04:35:46;3.13;;;1.20;;
29370;SDS011;16357;52.188;7.838;2023-01-16T04:38:13;2.85;;;1.15;;
29370;SDS011;16357;52.188;7.838;2023-01-16T04:40:39;2.88;;;1.35;;
29370;SDS011;16357;52.188;7.838;2023-01-16T04:43:06;3.03;;;1.58;;
29370;SDS011;16357;52.188;7.838;2023-01-16T04:45:32;5.50;;;1.83;;
29370;SDS011;16357;52.188;7.838;2023-01-16T04:47:59;5.47;;;1.77;;
29370;SDS011;16357;52.188;7.838;2023-01-16T04:50:25;3.58;;;1.25;;
29370;SDS011;16357;52.188;7.838;2023-01-16T04:52:51;4.95;;;1.65;;
29370;SDS011;16357;52.188;7.838;2023-01-16T04:55:18;4.90;;;1.63;;
29370;SDS011;16357;52.188;7.838;2023-01-16T04:57:44;4.07;;;1.30;;
29370;SDS011;16357;52.188;7.838;2023-01-16T05:00:11;5.30;;;1.73;;
29370;SDS011;16357;52.188;7.838;2023-01-16T05:02:38;2.63;;;1.55;;
29370;SDS011;16357;52.188;7.838;2023-01-16T05:05:05;3.20;;;1.60;;
29370;SDS011;16357;52.188;7.838;2023-01-16T05:07:31;5.85;;;1.60;;
29370;SDS011;16357;52.188;7.838;2023-01-16T05:09:58;4.95;;;1.63;;
29370;SDS011;16357;52.188;7.838;2023-01-16T05:12:24;3.55;;;1.42;;
29370;SDS011;16357;52.188;7.838;2023-01-16T05:14:51;4.70;;;1.60;;
29370;SDS011;16357;52.188;7.838;2023-01-16T05:17:17;4.05;;;1.58;;
29370;SDS011;16357;52.188;7.838;2023-01-16T05:19:43;3.70;;;1.58;;
29370;SDS011;16357;52.188;7.838;2023-01-16T05:22:10;5.47;;;1.98;;
29370;SDS011;16357;52.188;7.838;2023-01-16T05:24:36;3.28;;;1.20;;
29370;SDS011;16357;52.188;7.838;2023-01-16T05:27:03;5.25;;;1.33;;
29370;SDS011;16357;52.188;7.838;2023-01-16T05:29:30;3.13;;;1.20;;
29370;SDS011;16357;52.188;7.838;2023-01-16T05:31:57;2.58;;;1.20;;
29370;SDS011;16357;52.188;7.838;2023-01-16T05:34:23;1.73;;;1.10;;
29370;SDS011;16357;52.188;7.838;2023-01-16T05:36:49;4.15;;;1.30;;
29370;SDS011;16357;52.188;7.838;2023-01-16T05:39:16;2.80;;;1.40;;
29370;SDS011;16357;52.188;7.838;2023-01-16T05:41:42;2.67;;;1.42;;
29370;SDS011;16357;52.188;7.838;2023-01-16T05:44:09;4.75;;;1.50;;
29370;SDS011;16357;52.188;7.838;2023-01-16T05:46:35;3.38;;;1.70;;
29370;SDS011;16357;52.188;7.838;2023-01-16T05:49:02;4.07;;;1.73;;
29370;SDS011;16357;52.188;7.838;2023-01-16T05:51:28;3.80;;;1.45;;
29370;SDS011;16357;52.188;7.838;2023-01-16T05:53:55;2.58;;;1.60;;
29370;SDS011;16357;52.188;7.838;2023-01-16T05:56:21;5.28;;;1.67;;
29370;SDS011;16357;52.188;7.838;2023-01-16T05:58:48;3.38;;;1.40;;
29370;SDS011;16357;52.188;7.838;2023-01-16T06:01:15;1.90;;;1.15;;
29370;SDS011;16357;52.188;7.838;2023-01-16T06:03:41;4.22;;;1.40;;
29370;SDS011;16357;52.188;7.838;2023-01-16T06:06:08;3.20;;;1.58;;
29370;SDS011;16357;52.188;7.838;2023-01-16T06:08:34;3.22;;;1.67;;
29370;SDS011;16357;52.188;7.838;2023-01-16T06:11:00;4.68;;;1.80;;
29370;SDS011;16357;52.188;7.838;2023-01-16T06:13:27;3.35;;;1.83;;
29370;SDS011;16357;52.188;7.838;2023-01-16T06:15:53;4.30;;;1.73;;
29370;SDS011;16357;52.188;7.838;2023-01-16T06:18:20;2.47;;;1.42;;
29370;SDS011;16357;52.188;7.838;2023-01-16T06:20:46;3.58;;;1.98;;
29370;SDS011;16357;52.188;7.838;2023-01-16T06:23:12;5.15;;;1.80;;
29370;SDS011;16357;52.188;7.838;2023-01-16T06:25:39;4.10;;;2.10;;
29370;SDS011;16357;52.188;7.838;2023-01-16T06:28:17;5.07;;;2.08;;
29370;SDS011;16357;52.188;7.838;2023-01-16T06:30:44;7.30;;;2.67;;
29370;SDS011;16357;52.188;7.838;2023-01-16T06:33:10;6.13;;;2.10;;
29370;SDS011;16357;52.188;7.838;2023-01-16T06:35:36;4.80;;;2.00;;
29370;SDS011;16357;52.188;7.838;2023-01-16T06:38:03;3.15;;;1.70;;
29370;SDS011;16357;52.188;7.838;2023-01-16T06:40:29;4.28;;;1.30;;
29370;SDS011;16357;52.188;7.838;2023-01-16T06:42:56;5.65;;;1.40;;
29370;SDS011;16357;52.188;7.838;2023-01-16T06:45:22;5.35;;;1.45;;
29370;SDS011;16357;52.188;7.838;2023-01-16T06:47:52;3.60;;;1.55;;
29370;SDS011;16357;52.188;7.838;2023-01-16T06:50:19;2.42;;;1.25;;
29370;SDS011;16357;52.188;7.838;2023-01-16T06:52:46;2.42;;;1.27;;
29370;SDS011;16357;52.188;7.838;2023-01-16T06:55:13;2.50;;;1.20;;
29370;SDS011;16357;52.188;7.838;2023-01-16T06:57:43;2.03;;;1.00;;
29370;SDS011;16357;52.188;7.838;2023-01-16T07:00:09;2.03;;;1.00;;
29370;SDS011;16357;52.188;7.838;2023-01-16T07:02:36;1.33;;;0.95;;
29370;SDS011;16357;52.188;7.838;2023-01-16T07:05:06;2.33;;;1.15;;
29370;SDS011;16357;52.188;7.838;2023-01-16T07:07:33;1.30;;;0.90;;
29370;SDS011;16357;52.188;7.838;2023-01-16T07:10:00;2.30;;;1.20;;
29370;SDS011;16357;52.188;7.838;2023-01-16T07:12:27;2.65;;;1.20;;
29370;SDS011;16357;52.188;7.838;2023-01-16T07:14:54;3.80;;;1.48;;
29370;SDS011;16357;52.188;7.838;2023-01-16T07:17:38;2.53;;;1.33;;
29370;SDS011;16357;52.188;7.838;2023-01-16T07:20:23;2.33;;;1.25;;
29370;SDS011;16357;52.188;7.838;2023-01-16T07:23:13;3.45;;;1.48;;
29370;SDS011;16357;52.188;7.838;2023-01-16T07:25:46;3.15;;;1.40;;
29370;SDS011;16357;52.188;7.838;2023-01-16T07:28:14;2.13;;;1.42;;
29370;SDS011;16357;52.188;7.838;2023-01-16T07:30:40;1.80;;;1.40;;
29370;SDS011;16357;52.188;7.838;2023-01-16T07:33:07;1.90;;;1.35;;
29370;SDS011;16357;52.188;7.838;2023-01-16T07:35:33;2.95;;;1.52;;
29370;SDS011;16357;52.188;7.838;2023-01-16T07:38:00;3.80;;;1.45;;
29370;SDS011;16357;52.188;7.838;2023-01-16T07:40:26;2.72;;;1.52;;
29370;SDS011;16357;52.188;7.838;2023-01-16T07:42:52;1.75;;;1.17;;
29370;SDS011;16357;52.188;7.838;2023-01-16T07:45:19;3.83;;;1.50;;
29370;SDS011;16357;52.188;7.838;2023-01-16T07:47:45;1.75;;;1.35;;
29370;SDS011;16357;52.188;7.838;2023-01-16T07:50:12;2.63;;;1.27;;
29370;SDS011;16357;52.188;7.838;2023-01-16T07:52:44;2.65;;;1.50;;
29370;SDS011;16357;52.188;7.838;2023-01-16T07:55:12;1.65;;;1.10;;
29370;SDS011;16357;52.188;7.838;2023-01-16T07:57:39;5.20;;;1.33;;
29370;SDS011;16357;52.188;7.838;2023-01-16T08:00:07;2.58;;;1.30;;
29370;SDS011;16357;52.188;7.838;2023-01-16T08:02:36;4.60;;;1.33;;
29370;SDS011;16357;52.188;7.838;2023-01-16T08:05:03;4.88;;;1.67;;
29370;SDS011;16357;52.188;7.838;2023-01-16T08:07:30;4.55;;;1.58;;
29370;SDS011;16357;52.188;7.838;2023-01-16T08:09:57;3.17;;;1.20;;
29370;SDS011;16357;52.188;7.838;2023-01-16T08:12:23;3.47;;;1.48;;
29370;SDS011;16357;52.188;7.838;2023-01-16T08:14:50;3.25;;;1.40;;
29370;SDS011;16357;52.188;7.838;2023-01-16T08:17:16;4.13;;;1.00;;
29370;SDS011;16357;52.188;7.838;2023-01-16T08:19:42;2.13;;;1.30;;
29370;SDS011;16357;52.188;7.838;2023-01-16T08:22:09;2.83;;;1.65;;
29370;SDS011;16357;52.188;7.838;2023-01-16T08:24:35;2.47;;;1.58;;
29370;SDS011;16357;52.188;7.838;2023-01-16T08:27:02;2.75;;;1.52;;
29370;SDS011;16357;52.188;7.838;2023-01-16T08:29:28;3.35;;;1.60;;
29370;SDS011;16357;52.188;7.838;2023-01-16T08:31:54;3.35;;;1.48;;
29370;SDS011;16357;52.188;7.838;2023-01-16T08:34:21;2.20;;;1.00;;
29370;SDS011;16357;52.188;7.838;2023-01-16T08:36:47;3.20;;;1.30;;
29370;SDS011;16357;52.188;7.838;2023-01-16T08:39:14;4.45;;;1.60;;
29370;SDS011;16357;52.188;7.838;2023-01-16T08:41:40;3.25;;;1.20;;
29370;SDS011;16357;52.188;7.838;2023-01-16T08:44:25;4.70;;;1.40;;
29370;SDS011;16357;52.188;7.838;2023-01-16T08:47:11;2.72;;;1.20;;
29370;SDS011;16357;52.188;7.838;2023-01-16T08:49:59;5.45;;;1.67;;
29370;SDS011;16357;52.188;7.838;2023-01-16T08:52:44;4.90;;;1.67;;
29370;SDS011;16357;52.188;7.838;2023-01-16T08:55:11;1.95;;;1.50;;
29370;SDS011;16357;52.188;7.838;2023-01-16T08:57:38;3.67;;;1.55;;
29370;SDS011;16357;52.188;7.838;2023-01-16T09:00:04;3.17;;;1.33;;
29370;SDS011;16357;52.188;7.838;2023-01-16T09:02:32;2.90;;;1.17;;
29370;SDS011;16357;52.188;7.838;2023-01-16T09:05:02;4.03;;;1.30;;
29370;SDS011;16357;52.188;7.838;2023-01-16T09:07:29;2.53;;;1.15;;
29370;SDS011;16357;52.188;7.838;2023-01-16T09:09:55;1.88;;;1.38;;
29370;SDS011;16357;52.188;7.838;2023-01-16T09:12:21;2.67;;;1.75;;
29370;SDS011;16357;52.188;7.838;2023-01-16T09:15:07;5.20;;;1.70;;
29370;SDS011;16357;52.188;7.838;2023-01-16T09:17:34;2.25;;;1.35;;
29370;SDS011;16357;52.188;7.838;2023-01-16T09:20:00;5.22;;;1.77;;
29370;SDS011;16357;52.188;7.838;2023-01-16T09:22:26;3.30;;;1.60;;
29370;SDS011;16357;52.188;7.838;2023-01-16T09:24:53;2.00;;;1.45;;
29370;SDS011;16357;52.188;7.838;2023-01-16T09:27:20;2.63;;;1.70;;
29370;SDS011;16357;52.188;7.838;2023-01-16T09:29:47;3.65;;;1.73;;
29370;SDS011;16357;52.188;7.838;2023-01-16T09:32:13;3.33;;;1.70;;
29370;SDS011;16357;52.188;7.838;2023-01-16T09:34:39;3.28;;;1.83;;
29370;SDS011;16357;52.188;7.838;2023-01-16T09:37:07;4.03;;;1.70;;
29370;SDS011;16357;52.188;7.838;2023-01-16T09:39:43;4.60;;;1.73;;
29370;SDS011;16357;52.188;7.838;2023-01-16T09:45:21;2.35;;;1.42;;
29370;SDS011;16357;52.188;7.838;2023-01-16T09:47:53;3.22;;;1.60;;
29370;SDS011;16357;52.188;7.838;2023-01-16T09:50:29;3.65;;;1.60;;
29370;SDS011;16357;52.188;7.838;2023-01-16T09:53:01;3.92;;;1.40;;
29370;SDS011;16357;52.188;7.838;2023-01-16T09:55:49;2.58;;;1.40;;
29370;SDS011;16357;52.188;7.838;2023-01-16T09:58:36;3.97;;;1.75;;
29370;SDS011;16357;52.188;7.838;2023-01-16T10:01:08;3.60;;;1.65;;
29370;SDS011;16357;52.188;7.838;2023-01-16T10:03:39;3.30;;;1.50;;
29370;SDS011;16357;52.188;7.838;2023-01-16T10:06:12;3.58;;;1.70;;
29370;SDS011;16357;52.188;7.838;2023-01-16T10:11:34;5.68;;;1.70;;
29370;SDS011;16357;52.188;7.838;2023-01-16T10:22:44;2.97;;;1.33;;
29370;SDS011;16357;52.188;7.838;2023-01-16T10:25:28;2.10;;;1.50;;
29370;SDS011;16357;52.188;7.838;2023-01-16T10:30:43;4.45;;;1.40;;
29370;SDS011;16357;52.188;7.838;2023-01-16T10:36:05;4.00;;;1.50;;
29370;SDS011;16357;52.188;7.838;2023-01-16T10:38:37;3.47;;;1.80;;
29370;SDS011;16357;52.188;7.838;2023-01-16T10:41:13;3.15;;;1.17;;
29370;SDS011;16357;52.188;7.838;2023-01-16T10:44:03;3.90;;;1.70;;
29370;SDS011;16357;52.188;7.838;2023-01-16T10:46:56;3.20;;;1.50;;
29370;SDS011;16357;52.188;7.838;2023-01-16T10:49:41;3.92;;;1.70;;
29370;SDS011;16357;52.188;7.838;2023-01-16T10:52:08;5.28;;;1.90;;
29370;SDS011;16357;52.188;7.838;2023-01-16T10:54:34;3.25;;;1.50;;
29370;SDS011;16357;52.188;7.838;2023-01-16T10:57:01;3.75;;;1.60;;
29370;SDS011;16357;52.188;7.838;2023-01-16T10:59:31;5.50;;;2.10;;
29370;SDS011;16357;52.188;7.838;2023-01-16T11:02:00;3.35;;;1.75;;
29370;SDS011;16357;52.188;7.838;2023-01-16T11:04:38;3.88;;;1.40;;
29370;SDS011;16357;52.188;7.838;2023-01-16T11:07:14;5.03;;;1.65;;
29370;SDS011;16357;52.188;7.838;2023-01-16T11:09:45;3.80;;;1.63;;
29370;SDS011;16357;52.188;7.838;2023-01-16T11:12:23;4.05;;;1.80;;
29370;SDS011;16357;52.188;7.838;2023-01-16T11:15:15;5.25;;;2.17;;
29370;SDS011;16357;52.188;7.838;2023-01-16T11:18:17;6.13;;;2.25;;
29370;SDS011;16357;52.188;7.838;2023-01-16T11:20:58;3.25;;;1.73;;
29370;SDS011;16357;52.188;7.838;2023-01-16T11:23:47;2.92;;;1.73;;
29370;SDS011;16357;52.188;7.838;2023-01-16T11:26:15;2.90;;;1.50;;
29370;SDS011;16357;52.188;7.838;2023-01-16T11:28:43;4.70;;;1.85;;
29370;SDS011;16357;52.188;7.838;2023-01-16T11:31:20;4.55;;;1.77;;
29370;SDS011;16357;52.188;7.838;2023-01-16T11:33:55;3.45;;;1.30;;
29370;SDS011;16357;52.188;7.838;2023-01-16T11:36:31;3.50;;;1.58;;
29370;SDS011;16357;52.188;7.838;2023-01-16T11:39:00;3.72;;;1.35;;
29370;SDS011;16357;52.188;7.838;2023-01-16T11:41:28;3.30;;;1.20;;
29370;SDS011;16357;52.188;7.838;2023-01-16T11:47:01;3.03;;;1.40;;
29370;SDS011;16357;52.188;7.838;2023-01-16T11:49:32;1.90;;;0.80;;
29370;SDS011;16357;52.188;7.838;2023-01-16T11:52:05;2.47;;;0.98;;
29370;SDS011;16357;52.188;7.838;2023-01-16T11:54:32;2.58;;;1.10;;
29370;SDS011;16357;52.188;7.838;2023-01-16T11:57:05;1.85;;;0.95;;
29370;SDS011;16357;52.188;7.838;2023-01-16T12:00:02;2.97;;;1.00;;
29370;SDS011;16357;52.188;7.838;2023-01-16T12:03:02;2.03;;;0.98;;
29370;SDS011;16357;52.188;7.838;2023-01-16T12:08:52;1.60;;;1.00;;
29370;SDS011;16357;52.188;7.838;2023-01-16T12:11:31;1.23;;;0.98;;
29370;SDS011;16357;52.188;7.838;2023-01-16T12:14:15;2.67;;;0.68;;
29370;SDS011;16357;52.188;7.838;2023-01-16T12:28:10;2.50;;;0.70;;
29370;SDS011;16357;52.188;7.838;2023-01-16T12:30:48;0.70;;;0.60;;
29370;SDS011;16357;52.188;7.838;2023-01-16T12:41:23;2.35;;;1.50;;
29370;SDS011;16357;52.188;7.838;2023-01-16T12:47:05;2.17;;;1.20;;
29370;SDS011;16357;52.188;7.838;2023-01-16T12:49:50;2.30;;;1.17;;
29370;SDS011;16357;52.188;7.838;2023-01-16T12:58:17;1.60;;;0.95;;
29370;SDS011;16357;52.188;7.838;2023-01-16T13:00:48;1.17;;;0.80;;
29370;SDS011;16357;52.188;7.838;2023-01-16T13:03:26;0.93;;;0.70;;
29370;SDS011;16357;52.188;7.838;2023-01-16T13:06:00;0.98;;;0.70;;
29370;SDS011;16357;52.188;7.838;2023-01-16T13:08:39;1.30;;;0.90;;
29370;SDS011;16357;52.188;7.838;2023-01-16T13:11:13;0.85;;;0.60;;
29370;SDS011;16357;52.188;7.838;2023-01-16T13:14:05;0.95;;;0.70;;
29370;SDS011;16357;52.188;7.838;2023-01-16T13:19:12;1.08;;;0.70;;
29370;SDS011;16357;52.188;7.838;2023-01-16T13:24:22;1.45;;;0.77;;
29370;SDS011;16357;52.188;7.838;2023-01-16T13:26:57;0.73;;;0.60;;
29370;SDS011;16357;52.188;7.838;2023-01-16T13:29:36;0.80;;;0.68;;
29370;SDS011;16357;52.188;7.838;2023-01-16T13:32:25;0.55;;;0.55;;
29370;SDS011;16357;52.188;7.838;2023-01-16T13:34:57;1.17;;;0.60;;
29370;SDS011;16357;52.188;7.838;2023-01-16T13:42:59;1.00;;;0.70;;
29370;SDS011;16357;52.188;7.838;2023-01-16T13:45:48;0.50;;;0.50;;
29370;SDS011;16357;52.188;7.838;2023-01-16T13:48:19;0.57;;;0.57;;
29370;SDS011;16357;52.188;7.838;2023-01-16T13:50:50;1.20;;;0.60;;
29370;SDS011;16357;52.188;7.838;2023-01-16T13:53:20;0.80;;;0.60;;
29370;SDS011;16357;52.188;7.838;2023-01-16T13:55:48;1.63;;;0.70;;
29370;SDS011;16357;52.188;7.838;2023-01-16T13:58:19;2.03;;;0.90;;
29370;SDS011;16357;52.188;7.838;2023-01-16T14:01:04;0.68;;;0.50;;
29370;SDS011;16357;52.188;7.838;2023-01-16T14:03:33;1.42;;;0.60;;
29370;SDS011;16357;52.188;7.838;2023-01-16T14:08:49;1.30;;;0.90;;
29370;SDS011;16357;52.188;7.838;2023-01-16T14:11:56;1.05;;;0.85;;
29370;SDS011;16357;52.188;7.838;2023-01-16T14:14:32;0.82;;;0.75;;
29370;SDS011;16357;52.188;7.838;2023-01-16T14:17:21;0.75;;;0.70;;
29370;SDS011;16357;52.188;7.838;2023-01-16T14:19:54;1.02;;;0.60;;
29370;SDS011;16357;52.188;7.838;2023-01-16T14:22:34;0.65;;;0.63;;
29370;SDS011;16357;52.188;7.838;2023-01-16T14:25:06;1.05;;;0.80;;
29370;SDS011;16357;52.188;7.838;2023-01-16T14:27:43;0.80;;;0.70;;
29370;SDS011;16357;52.188;7.838;2023-01-16T14:30:16;1.20;;;0.73;;
29370;SDS011;16357;52.188;7.838;2023-01-16T14:32:46;1.88;;;0.80;;
29370;SDS011;16357;52.188;7.838;2023-01-16T14:35:17;0.82;;;0.80;;
29370;SDS011;16357;52.188;7.838;2023-01-16T14:38:06;0.60;;;0.60;;
29370;SDS011;16357;52.188;7.838;2023-01-16T14:40:45;0.80;;;0.80;;
29370;SDS011;16357;52.188;7.838;2023-01-16T14:43:33;1.85;;;1.02;;
29370;SDS011;16357;52.188;7.838;2023-01-16T14:55:31;1.67;;;0.90;;
29370;SDS011;16357;52.188;7.838;2023-01-16T14:58:08;1.38;;;0.85;;
29370;SDS011;16357;52.188;7.838;2023-01-16T15:00:40;0.70;;;0.70;;
29370;SDS011;16357;52.188;7.838;2023-01-16T15:03:12;1.00;;;0.63;;
29370;SDS011;16357;52.188;7.838;2023-01-16T15:05:46;1.55;;;0.80;;
29370;SDS011;16357;52.188;7.838;2023-01-16T15:08:17;0.98;;;0.88;;
29370;SDS011;16357;52.188;7.838;2023-01-16T15:10:47;1.15;;;0.60;;
29370;SDS011;16357;52.188;7.838;2023-01-16T15:13:24;1.92;;;0.98;;
29370;SDS011;16357;52.188;7.838;2023-01-16T15:16:18;2.88;;;1.42;;
29370;SDS011;16357;52.188;7.838;2023-01-16T15:19:14;1.38;;;1.23;;
29370;SDS011;16357;52.188;7.838;2023-01-16T15:22:02;1.48;;;1.10;;
29370;SDS011;16357;52.188;7.838;2023-01-16T15:24:39;1.30;;;1.00;;
29370;SDS011;16357;52.188;7.838;2023-01-16T15:27:10;1.33;;;1.00;;
29370;SDS011;16357;52.188;7.838;2023-01-16T15:29:47;1.65;;;1.25;;
29370;SDS011;16357;52.188;7.838;2023-01-16T15:32:22;2.05;;;1.00;;
29370;SDS011;16357;52.188;7.838;2023-01-16T15:37:49;1.08;;;0.60;;
29370;SDS011;16357;52.188;7.838;2023-01-16T15:40:25;1.05;;;0.88;;
29370;SDS011;16357;52.188;7.838;2023-01-16T15:42:53;0.83;;;0.67;;
29370;SDS011;16357;52.188;7.838;2023-01-16T15:45:47;1.30;;;0.80;;
29370;SDS011;16357;52.188;7.838;2023-01-16T15:49:14;1.50;;;0.95;;
29370;SDS011;16357;52.188;7.838;2023-01-16T15:51:56;1.17;;;1.00;;
29370;SDS011;16357;52.188;7.838;2023-01-16T15:54:24;2.13;;;1.40;;
29370;SDS011;16357;52.188;7.838;2023-01-16T15:56:51;1.30;;;1.10;;
29370;SDS011;16357;52.188;7.838;2023-01-16T15:59:22;0.93;;;0.80;;
29370;SDS011;16357;52.188;7.838;2023-01-16T16:01:51;1.33;;;0.93;;
29370;SDS011;16357;52.188;7.838;2023-01-16T16:04:18;0.90;;;0.90;;
29370;SDS011;16357;52.188;7.838;2023-01-16T16:06:46;1.25;;;0.93;;
29370;SDS011;16357;52.188;7.838;2023-01-16T16:09:18;1.45;;;1.10;;
29370;SDS011;16357;52.188;7.838;2023-01-16T16:11:46;1.00;;;0.85;;
29370;SDS011;16357;52.188;7.838;2023-01-16T16:14:29;1.20;;;1.10;;
29370;SDS011;16357;52.188;7.838;2023-01-16T16:17:22;2.08;;;1.17;;
29370;SDS011;16357;52.188;7.838;2023-01-16T16:28:22;2.03;;;1.50;;
29370;SDS011;16357;52.188;7.838;2023-01-16T16:33:23;1.65;;;1.40;;
29370;SDS011;16357;52.188;7.838;2023-01-16T16:35:52;1.63;;;1.25;;
29370;SDS011;16357;52.188;7.838;2023-01-16T16:38:22;1.85;;;1.30;;
29370;SDS011;16357;52.188;7.838;2023-01-16T16:41:17;2.33;;;1.40;;
29370;SDS011;16357;52.188;7.838;2023-01-16T16:44:23;2.83;;;1.70;;
29370;SDS011;16357;52.188;7.838;2023-01-16T16:46:57;3.22;;;1.73;;
29370;SDS011;16357;52.188;7.838;2023-01-16T16:51:50;3.40;;;1.92;;
29370;SDS011;16357;52.188;7.838;2023-01-16T16:54:17;3.70;;;2.15;;
29370;SDS011;16357;52.188;7.838;2023-01-16T16:56:45;2.92;;;1.88;;
29370;SDS011;16357;52.188;7.838;2023-01-16T16:59:18;1.92;;;1.45;;
29370;SDS011;16357;52.188;7.838;2023-01-16T17:01:48;3.15;;;1.90;;
29370;SDS011;16357;52.188;7.838;2023-01-16T17:04:17;2.45;;;1.55;;
29370;SDS011;16357;52.188;7.838;2023-01-16T17:06:44;2.42;;;1.65;;
29370;SDS011;16357;52.188;7.838;2023-01-16T17:09:12;2.17;;;1.58;;
29370;SDS011;16357;52.188;7.838;2023-01-16T17:11:40;1.60;;;1.30;;
29370;SDS011;16357;52.188;7.838;2023-01-16T17:14:07;2.38;;;1.13;;
29370;SDS011;16357;52.188;7.838;2023-01-16T17:16:33;1.80;;;1.13;;
29370;SDS011;16357;52.188;7.838;2023-01-16T17:21:29;2.55;;;1.27;;
29370;SDS011;16357;52.188;7.838;2023-01-16T17:23:55;1.20;;;1.10;;
29370;SDS011;16357;52.188;7.838;2023-01-16T17:26:22;2.38;;;1.35;;
29370;SDS011;16357;52.188;7.838;2023-01-16T17:28:49;1.33;;;1.02;;
29370;SDS011;16357;52.188;7.838;2023-01-16T17:31:17;1.35;;;1.02;;
29370;SDS011;16357;52.188;7.838;2023-01-16T17:33:46;2.33;;;1.45;;